createdAt,value
2019-03-06T00:01:54.421Z,94.80
2019-03-06T00:04:24.783Z,94.80
2019-03-06T00:06:55.108Z,94.80
2019-03-06T00:09:25.664Z,94.80
2019-03-06T00:11:55.951Z,94.70
2019-03-06T00:14:26.271Z,94.80
2019-03-06T00:16:57.023Z,94.80
2019-03-06T00:19:27.354Z,94.80
2019-03-06T00:21:57.645Z,94.80
2019-03-06T00:24:27.971Z,94.60
2019-03-06T00:26:58.262Z,94.60
2019-03-06T00:29:28.658Z,94.70
2019-03-06T00:31:58.971Z,94.60
2019-03-06T00:34:29.265Z,94.70
2019-03-06T00:36:59.585Z,94.90
2019-03-06T00:39:35.477Z,94.90
2019-03-06T00:42:05.871Z,95.10
2019-03-06T00:44:36.190Z,95.30
2019-03-06T00:47:06.524Z,95.50
2019-03-06T00:49:36.887Z,95.70
2019-03-06T00:52:07.255Z,95.70
2019-03-06T00:54:37.607Z,95.80
2019-03-06T00:57:07.977Z,95.80
2019-03-06T00:59:39.044Z,95.90
2019-03-06T01:02:09.392Z,96.00
2019-03-06T01:04:39.722Z,95.80
2019-03-06T01:07:10.055Z,96.10
2019-03-06T01:09:40.372Z,96.20
2019-03-06T01:12:12.698Z,96.20
2019-03-06T01:14:43.973Z,96.20
2019-03-06T01:17:14.318Z,96.40
2019-03-06T01:19:44.652Z,96.50
2019-03-06T01:22:14.958Z,96.70
2019-03-06T01:24:45.306Z,96.70
2019-03-06T01:27:15.634Z,96.70
2019-03-06T01:29:46.783Z,96.80
2019-03-06T01:32:17.069Z,96.90
2019-03-06T01:35:06.618Z,97.00
2019-03-06T01:37:54.460Z,97.00
2019-03-06T01:40:38.966Z,97.20
2019-03-06T01:43:16.434Z,97.30
2019-03-06T01:45:46.826Z,97.30
2019-03-06T01:48:17.376Z,97.30
2019-03-06T01:50:47.724Z,97.50
2019-03-06T01:53:18.035Z,97.70
2019-03-06T01:55:48.349Z,97.80
2019-03-06T01:58:18.676Z,97.80
2019-03-06T02:00:49.086Z,98.00
2019-03-06T02:03:19.425Z,97.90
2019-03-06T02:05:49.718Z,98.00
2019-03-06T02:08:20.162Z,98.20
2019-03-06T02:10:50.692Z,98.30
2019-03-06T02:13:23.416Z,98.30
2019-03-06T02:15:53.742Z,98.30
2019-03-06T02:18:24.166Z,98.40
2019-03-06T02:20:54.548Z,98.50
2019-03-06T02:23:24.906Z,98.70
2019-03-06T02:25:55.245Z,98.70
2019-03-06T02:28:25.598Z,98.80
2019-03-06T02:30:55.958Z,98.80
2019-03-06T02:33:26.610Z,98.90
2019-03-06T02:35:56.927Z,99.00
2019-03-06T02:38:27.243Z,98.80
2019-03-06T02:40:57.555Z,98.90
2019-03-06T02:43:27.932Z,99.00
2019-03-06T02:45:58.367Z,99.10
2019-03-06T02:48:28.705Z,99.10
2019-03-06T02:50:59.025Z,99.10
2019-03-06T02:53:29.402Z,99.10
2019-03-06T02:55:59.721Z,98.90
2019-03-06T02:58:39.718Z,99.10
2019-03-06T03:01:44.350Z,99.20
2019-03-06T03:04:37.962Z,99.40
2019-03-06T03:07:11.396Z,99.20
2019-03-06T03:09:41.915Z,99.10
2019-03-06T03:12:13.859Z,98.80
2019-03-06T03:14:44.179Z,98.30
2019-03-06T03:17:14.504Z,98.10
2019-03-06T03:19:44.855Z,98.10
2019-03-06T03:22:15.195Z,98.20
2019-03-06T03:24:45.498Z,98.20
2019-03-06T03:27:15.824Z,98.10
2019-03-06T03:29:46.162Z,98.10
2019-03-06T03:32:16.779Z,97.80
2019-03-06T03:34:47.137Z,97.80
2019-03-06T03:37:17.451Z,98.00
2019-03-06T03:39:47.800Z,98.10
2019-03-06T03:42:18.227Z,98.00
2019-03-06T03:44:48.661Z,98.20
2019-03-06T03:47:19.111Z,98.00
2019-03-06T03:49:49.423Z,97.70
2019-03-06T03:52:19.839Z,97.80
2019-03-06T03:54:50.162Z,97.90
2019-03-06T03:57:20.583Z,98.10
2019-03-06T03:59:51.328Z,98.20
2019-03-06T04:02:22.940Z,98.00
2019-03-06T04:04:53.270Z,98.10
2019-03-06T04:07:23.591Z,98.30
2019-03-06T04:09:53.985Z,98.50
2019-03-06T04:12:24.357Z,98.40
2019-03-06T04:14:54.668Z,98.50
2019-03-06T04:17:26.142Z,98.50
2019-03-06T04:19:56.841Z,98.50
2019-03-06T04:22:27.172Z,98.80
2019-03-06T04:24:57.484Z,98.80
2019-03-06T04:27:27.799Z,98.90
2019-03-06T04:29:58.089Z,99.00
2019-03-06T04:32:28.439Z,99.00
2019-03-06T04:34:58.751Z,99.20
2019-03-06T04:37:29.053Z,99.30
2019-03-06T04:39:59.365Z,99.20
2019-03-06T04:42:29.755Z,99.20
2019-03-06T04:45:00.051Z,99.20
2019-03-06T04:47:30.452Z,99.20
2019-03-06T04:50:00.813Z,99.20
2019-03-06T04:52:31.174Z,99.20
2019-03-06T04:55:01.770Z,99.20
2019-03-06T04:57:32.095Z,99.20
2019-03-06T05:00:02.395Z,99.30
2019-03-06T05:02:32.753Z,99.40
2019-03-06T05:05:03.035Z,99.20
2019-03-06T05:07:34.269Z,99.40
2019-03-06T05:10:04.977Z,99.50
2019-03-06T05:12:35.264Z,99.50
2019-03-06T05:15:06.234Z,99.50
2019-03-06T05:17:42.337Z,99.50
2019-03-06T05:20:12.661Z,99.60
2019-03-06T05:22:43.005Z,99.60
2019-03-06T05:25:13.291Z,99.70
2019-03-06T05:27:43.620Z,99.70
2019-03-06T05:30:14.055Z,99.80
2019-03-06T05:32:46.566Z,99.70
2019-03-06T05:35:20.905Z,99.50
2019-03-06T05:37:54.824Z,99.30
2019-03-06T05:40:25.881Z,99.40
2019-03-06T05:42:56.227Z,99.40
2019-03-06T05:45:26.513Z,99.30
2019-03-06T05:47:56.846Z,99.40
2019-03-06T05:50:27.297Z,99.60
2019-03-06T05:52:57.613Z,99.20
2019-03-06T05:55:28.027Z,99.30
2019-03-06T05:57:58.377Z,99.30
2019-03-06T06:00:29.483Z,99.40
2019-03-06T06:03:00.221Z,99.50
2019-03-06T06:05:30.546Z,99.50
2019-03-06T06:08:00.873Z,99.50
2019-03-06T06:10:31.172Z,99.50
2019-03-06T06:13:01.498Z,99.50
2019-03-06T06:15:31.846Z,99.60
2019-03-06T06:18:02.215Z,99.60
2019-03-06T06:20:32.533Z,99.80
2019-03-06T06:23:22.627Z,99.70
2019-03-06T06:25:52.905Z,99.70
2019-03-06T06:28:23.230Z,99.80
2019-03-06T06:30:53.853Z,99.80
2019-03-06T06:33:24.195Z,99.80
2019-03-06T06:35:54.565Z,99.80
2019-03-06T06:38:24.853Z,99.80
2019-03-06T06:40:55.151Z,99.80
2019-03-06T06:43:25.485Z,99.50
2019-03-06T06:45:55.823Z,99.60
2019-03-06T06:48:26.941Z,99.50
2019-03-06T06:51:37.958Z,99.50
2019-03-06T06:54:14.017Z,99.60
2019-03-06T06:57:15.929Z,99.60
2019-03-06T07:00:20.920Z,99.90
2019-03-06T07:03:46.973Z,99.90
2019-03-06T07:06:39.065Z,99.90
2019-03-06T07:09:40.597Z,99.60
2019-03-06T07:12:19.505Z,99.60
2019-03-06T07:15:18.217Z,99.80
2019-03-06T07:18:07.153Z,99.80
2019-03-06T07:20:55.997Z,99.80
2019-03-06T07:23:45.288Z,99.90
2019-03-06T07:26:41.933Z,99.80
2019-03-06T07:29:18.705Z,99.80
2019-03-06T07:32:10.797Z,99.70
2019-03-06T07:34:50.941Z,99.70
2019-03-06T07:37:43.290Z,99.50
2019-03-06T07:40:20.549Z,99.60
2019-03-06T07:43:09.766Z,99.80
2019-03-06T07:46:08.690Z,99.70
2019-03-06T07:48:55.174Z,99.70
2019-03-06T07:51:50.979Z,99.60
2019-03-06T07:54:52.296Z,99.60
2019-03-06T07:57:29.459Z,99.70
2019-03-06T07:59:59.805Z,99.70
2019-03-06T08:02:58.687Z,99.80
2019-03-06T08:05:28.998Z,99.90
2019-03-06T08:07:59.268Z,99.90
2019-03-06T08:10:33.237Z,99.90
2019-03-06T08:13:12.241Z,99.90
2019-03-06T08:15:53.277Z,99.90
2019-03-06T08:18:43.498Z,99.90
2019-03-06T08:21:21.227Z,99.90
2019-03-06T08:24:09.049Z,99.90
2019-03-06T08:26:39.604Z,99.90
2019-03-06T08:29:09.917Z,99.90
2019-03-06T08:31:47.385Z,99.90
2019-03-06T08:34:17.677Z,99.90
2019-03-06T08:36:48.861Z,99.90
2019-03-06T08:39:23.502Z,99.90
2019-03-06T08:41:53.824Z,99.70
2019-03-06T08:44:24.157Z,99.70
2019-03-06T08:47:19.351Z,99.60
2019-03-06T08:50:11.397Z,99.70
2019-03-06T08:53:06.750Z,99.80
2019-03-06T08:55:59.947Z,99.70
2019-03-06T08:59:04.363Z,99.50
2019-03-06T09:02:00.116Z,99.30
2019-03-06T09:04:46.401Z,99.30
2019-03-06T09:07:36.304Z,99.20
2019-03-06T09:10:41.888Z,99.20
2019-03-06T09:13:18.577Z,99.10
2019-03-06T09:16:16.582Z,99.00
2019-03-06T09:19:04.597Z,98.90
2019-03-06T09:21:52.289Z,98.90
2019-03-06T09:24:40.145Z,98.50
2019-03-06T09:27:35.987Z,98.60
2019-03-06T09:30:21.724Z,98.50
2019-03-06T09:33:11.793Z,98.50
2019-03-06T09:35:48.191Z,98.50
2019-03-06T09:38:50.877Z,98.40
2019-03-06T09:41:30.775Z,98.20
2019-03-06T09:44:23.026Z,98.10
2019-03-06T09:47:10.951Z,97.90
2019-03-06T09:50:03.061Z,97.80
2019-03-06T09:52:50.415Z,97.80
2019-03-06T09:55:51.865Z,97.80
2019-03-06T09:58:42.487Z,97.70
2019-03-06T10:01:30.633Z,97.40
2019-03-06T10:04:18.481Z,97.20
2019-03-06T10:07:10.827Z,96.90
2019-03-06T10:10:00.248Z,97.00
2019-03-06T10:12:54.060Z,96.30
2019-03-06T10:15:38.169Z,96.50
2019-03-06T10:18:21.763Z,96.20
2019-03-06T10:20:52.071Z,96.40
2019-03-06T10:23:22.405Z,96.60
2019-03-06T10:25:52.718Z,96.60
2019-03-06T10:28:27.746Z,96.40
2019-03-06T10:31:02.173Z,96.50
2019-03-06T10:33:27.373Z,96.40
2019-03-06T10:35:57.679Z,96.50
2019-03-06T10:38:27.999Z,96.50
2019-03-06T10:40:58.337Z,96.50
2019-03-06T10:43:28.653Z,96.30
2019-03-06T10:45:58.988Z,96.40
2019-03-06T10:48:29.389Z,96.30
2019-03-06T10:50:59.777Z,95.90
2019-03-06T10:53:30.119Z,95.30
2019-03-06T10:56:00.497Z,94.80
2019-03-06T10:58:30.945Z,95.00
2019-03-06T11:01:01.371Z,94.50
2019-03-06T11:03:52.190Z,94.30
2019-03-06T11:06:22.519Z,92.80
2019-03-06T11:08:52.989Z,91.90
2019-03-06T11:11:25.277Z,92.00
2019-03-06T11:13:55.578Z,92.20
2019-03-06T11:16:26.334Z,92.60
2019-03-06T11:18:57.076Z,92.90
2019-03-06T11:21:27.881Z,92.80
2019-03-06T11:23:59.243Z,93.10
2019-03-06T11:26:30.565Z,93.30
2019-03-06T11:29:01.140Z,93.30
2019-03-06T11:31:32.225Z,93.40
2019-03-06T11:34:02.561Z,93.70
2019-03-06T11:36:33.089Z,93.70
2019-03-06T11:39:07.381Z,93.50
2019-03-06T11:41:38.997Z,93.70
2019-03-06T11:44:09.480Z,93.50
2019-03-06T11:46:39.825Z,93.50
2019-03-06T11:49:10.167Z,93.50
2019-03-06T11:51:41.437Z,93.50
2019-03-06T11:54:13.179Z,93.60
2019-03-06T11:56:43.616Z,93.20
2019-03-06T11:59:14.069Z,92.80
2019-03-06T12:01:48.299Z,93.00
2019-03-06T12:04:17.318Z,93.00
2019-03-06T12:06:47.575Z,93.00
2019-03-06T12:09:30.441Z,92.80
2019-03-06T12:12:01.565Z,92.20
2019-03-06T12:14:31.853Z,91.20
2019-03-06T12:17:03.258Z,91.20
2019-03-06T12:19:33.771Z,90.70
2019-03-06T12:22:04.068Z,90.20
2019-03-06T12:24:34.413Z,90.40
2019-03-06T12:27:05.131Z,90.40
2019-03-06T12:29:35.472Z,90.50
2019-03-06T12:32:07.031Z,90.50
2019-03-06T12:34:37.361Z,89.30
2019-03-06T12:37:07.680Z,89.90
2019-03-06T12:39:37.969Z,89.40
2019-03-06T12:42:14.288Z,88.50
2019-03-06T12:44:40.434Z,90.10
2019-03-06T12:47:11.281Z,90.50
2019-03-06T12:49:41.593Z,88.70
2019-03-06T12:52:11.969Z,88.80
2019-03-06T12:54:42.314Z,88.10
2019-03-06T12:57:13.052Z,86.60
2019-03-06T12:59:43.413Z,86.10
2019-03-06T13:02:13.963Z,86.10
2019-03-06T13:04:44.297Z,85.10
2019-03-06T13:07:18.633Z,84.40
2019-03-06T13:09:49.293Z,82.10
2019-03-06T13:12:19.663Z,80.70
2019-03-06T13:14:49.982Z,78.90
2019-03-06T13:17:20.417Z,80.30
2019-03-06T13:19:51.051Z,77.90
2019-03-06T13:22:21.335Z,77.90
2019-03-06T13:24:52.857Z,73.20
2019-03-06T13:27:23.343Z,73.30
2019-03-06T13:29:53.657Z,73.80
2019-03-06T13:32:25.561Z,74.40
2019-03-06T13:35:00.315Z,72.20
2019-03-06T13:37:30.677Z,69.60
2019-03-06T13:40:02.639Z,69.60
2019-03-06T13:42:34.667Z,70.20
2019-03-06T13:45:05.198Z,67.00
2019-03-06T13:47:35.554Z,69.00
2019-03-06T13:50:06.283Z,68.90
2019-03-06T13:52:36.706Z,68.40
2019-03-06T13:55:08.281Z,68.70
2019-03-06T13:57:38.607Z,68.90
2019-03-06T14:00:11.731Z,68.90
2019-03-06T14:02:42.067Z,66.40
2019-03-06T14:05:12.930Z,66.90
2019-03-06T14:07:43.445Z,67.20
2019-03-06T14:10:16.189Z,68.40
2019-03-06T14:12:46.576Z,68.90
2019-03-06T14:15:17.762Z,68.50
2019-03-06T14:17:48.157Z,68.50
2019-03-06T14:20:19.374Z,68.70
2019-03-06T14:22:49.735Z,69.10
2019-03-06T14:25:21.865Z,69.50
2019-03-06T14:27:52.301Z,70.00
2019-03-06T14:30:22.893Z,70.90
2019-03-06T14:32:53.585Z,70.60
2019-03-06T14:35:25.101Z,70.00
2019-03-06T14:37:55.457Z,69.00
2019-03-06T14:40:28.611Z,69.80
2019-03-06T14:43:00.302Z,70.40
2019-03-06T14:45:30.693Z,71.10
2019-03-06T14:48:01.037Z,71.80
2019-03-06T14:50:31.839Z,70.60
2019-03-06T14:53:03.135Z,71.40
2019-03-06T14:55:33.731Z,71.50
2019-03-06T14:58:04.121Z,72.10
2019-03-06T15:00:34.427Z,72.40
2019-03-06T15:03:04.950Z,73.60
2019-03-06T15:05:35.305Z,72.80
2019-03-06T15:08:07.379Z,72.50
2019-03-06T15:10:42.935Z,73.00
2019-03-06T15:13:10.262Z,72.80
2019-03-06T15:15:40.593Z,73.10
2019-03-06T15:18:15.627Z,72.70
2019-03-06T15:20:45.973Z,73.10
2019-03-06T15:23:16.289Z,73.30
2019-03-06T15:25:46.629Z,74.00
2019-03-06T15:28:16.938Z,74.80
2019-03-06T15:30:59.483Z,74.50
2019-03-06T15:33:30.183Z,74.60
2019-03-06T15:36:00.605Z,74.90
2019-03-06T15:38:30.929Z,75.10
2019-03-06T15:41:01.254Z,75.70
2019-03-06T15:43:32.444Z,75.90
2019-03-06T15:46:02.883Z,76.50
2019-03-06T15:48:33.245Z,77.10
2019-03-06T15:51:03.853Z,77.10
2019-03-06T15:53:34.220Z,77.00
2019-03-06T15:56:04.574Z,77.10
2019-03-06T15:58:35.966Z,78.30
2019-03-06T16:01:06.584Z,78.50
2019-03-06T16:03:36.895Z,79.20
2019-03-06T16:06:07.616Z,79.00
2019-03-06T16:08:37.912Z,78.70
2019-03-06T16:11:08.683Z,78.90
2019-03-06T16:13:40.402Z,79.50
2019-03-06T16:16:10.802Z,80.20
2019-03-06T16:18:41.120Z,80.00
2019-03-06T16:21:12.180Z,80.20
2019-03-06T16:23:42.468Z,80.70
2019-03-06T16:26:13.174Z,81.00
2019-03-06T16:28:43.523Z,81.90
2019-03-06T16:31:13.932Z,81.70
2019-03-06T16:33:44.326Z,81.90
2019-03-06T16:36:15.100Z,82.40
2019-03-06T16:38:45.402Z,83.00
2019-03-06T16:41:16.309Z,83.20
2019-03-06T16:43:48.092Z,83.50
2019-03-06T16:46:18.618Z,83.80
2019-03-06T16:48:48.971Z,83.90
2019-03-06T16:51:19.298Z,84.70
2019-03-06T16:53:49.774Z,83.70
2019-03-06T16:56:20.112Z,83.90
2019-03-06T16:58:50.493Z,83.90
2019-03-06T17:01:21.308Z,84.00
2019-03-06T17:03:51.665Z,84.40
2019-03-06T17:06:22.992Z,84.50
2019-03-06T17:08:53.414Z,85.00
2019-03-06T17:11:23.992Z,85.70
2019-03-06T17:13:54.936Z,87.10
2019-03-06T17:16:25.342Z,88.80
2019-03-06T17:18:55.688Z,90.10
2019-03-06T17:21:26.036Z,90.60
2019-03-06T17:23:56.574Z,90.90
2019-03-06T17:26:26.928Z,91.40
2019-03-06T17:28:57.248Z,91.70
2019-03-06T17:31:27.566Z,92.30
2019-03-06T17:33:57.869Z,92.60
2019-03-06T17:36:28.153Z,93.00
2019-03-06T17:38:58.489Z,93.20
2019-03-06T17:41:28.795Z,93.40
2019-03-06T17:43:59.326Z,93.70
2019-03-06T17:46:29.770Z,93.80
2019-03-06T17:49:00.082Z,94.00
2019-03-06T17:51:30.524Z,94.20
2019-03-06T17:54:00.909Z,94.30
2019-03-06T17:56:35.820Z,94.50
2019-03-06T17:59:06.180Z,94.50
2019-03-06T18:01:36.494Z,94.50
2019-03-06T18:04:14.906Z,94.50
2019-03-06T18:06:45.236Z,94.50
2019-03-06T18:09:15.712Z,94.50
2019-03-06T18:11:46.036Z,94.60
2019-03-06T18:14:17.436Z,94.60
2019-03-06T18:16:47.732Z,94.70
2019-03-06T18:19:18.098Z,94.80
2019-03-06T18:21:48.419Z,94.80
2019-03-06T18:24:18.796Z,94.90
2019-03-06T18:26:49.127Z,95.00
2019-03-06T18:29:19.684Z,95.10
2019-03-06T18:31:50.038Z,95.10
2019-03-06T18:34:20.392Z,95.30
2019-03-06T18:36:50.761Z,95.30
2019-03-06T18:39:21.300Z,95.30
2019-03-06T18:41:52.134Z,95.30
2019-03-06T18:44:23.008Z,95.30
2019-03-06T18:46:53.338Z,95.20
2019-03-06T18:49:23.704Z,95.20
2019-03-06T18:51:54.059Z,95.30
2019-03-06T18:54:24.420Z,95.20
2019-03-06T18:56:54.929Z,95.20
2019-03-06T18:59:33.777Z,95.20
2019-03-06T19:02:04.127Z,95.20
2019-03-06T19:04:34.498Z,95.10
2019-03-06T19:07:04.845Z,95.00
2019-03-06T19:09:36.276Z,95.00
2019-03-06T19:12:06.745Z,95.10
2019-03-06T19:14:37.973Z,95.00
2019-03-06T19:17:08.359Z,95.10
2019-03-06T19:19:38.894Z,95.00
2019-03-06T19:22:09.529Z,95.00
2019-03-06T19:24:39.857Z,95.00
2019-03-06T19:27:10.333Z,95.00
2019-03-06T19:29:40.658Z,95.00
2019-03-06T19:32:17.414Z,95.10
2019-03-06T19:34:47.801Z,95.10
2019-03-06T19:37:18.164Z,95.10
2019-03-06T19:39:48.483Z,95.10
2019-03-06T19:42:18.841Z,95.10
2019-03-06T19:44:50.671Z,95.10
2019-03-06T19:47:21.378Z,95.10
2019-03-06T19:49:51.727Z,95.00
2019-03-06T19:52:22.023Z,94.90
2019-03-06T19:54:52.389Z,95.00
2019-03-06T19:57:22.733Z,95.00
2019-03-06T19:59:54.242Z,94.70
2019-03-06T20:02:24.572Z,94.50
2019-03-06T20:04:55.222Z,94.50
2019-03-06T20:07:25.956Z,94.90
2019-03-06T20:09:56.277Z,94.50
2019-03-06T20:12:26.639Z,94.60
2019-03-06T20:14:58.530Z,94.60
2019-03-06T20:17:28.892Z,94.50
2019-03-06T20:20:00.315Z,94.30
2019-03-06T20:22:30.717Z,94.10
2019-03-06T20:25:01.117Z,94.10
2019-03-06T20:27:31.591Z,94.10
2019-03-06T20:30:01.940Z,93.90
2019-03-06T20:32:32.680Z,93.60
2019-03-06T20:35:03.008Z,93.50
2019-03-06T20:37:33.435Z,93.50
2019-03-06T20:40:04.122Z,93.40
2019-03-06T20:42:34.870Z,93.30
2019-03-06T20:45:07.007Z,93.10
2019-03-06T20:47:37.364Z,92.90
2019-03-06T20:50:08.045Z,92.70
2019-03-06T20:52:38.436Z,92.30
2019-03-06T20:55:09.133Z,92.20
2019-03-06T20:57:39.502Z,92.20
2019-03-06T21:00:13.302Z,92.20
2019-03-06T21:02:43.719Z,92.20
2019-03-06T21:05:14.115Z,92.10
2019-03-06T21:07:45.217Z,92.10
2019-03-06T21:10:16.442Z,92.20
2019-03-06T21:12:46.820Z,92.20
2019-03-06T21:15:18.285Z,92.30
2019-03-06T21:17:48.597Z,92.20
2019-03-06T21:20:19.206Z,92.10
2019-03-06T21:22:49.491Z,92.10
2019-03-06T21:25:20.130Z,92.20
2019-03-06T21:27:50.724Z,92.00
2019-03-06T21:30:29.321Z,91.80
2019-03-06T21:32:59.632Z,91.90
2019-03-06T21:35:29.984Z,91.80
2019-03-06T21:38:00.301Z,91.50
2019-03-06T21:40:31.503Z,91.30
2019-03-06T21:43:01.916Z,91.10
2019-03-06T21:45:33.943Z,90.90
2019-03-06T21:48:04.467Z,90.80
2019-03-06T21:50:34.761Z,90.60
2019-03-06T21:53:05.163Z,90.40
2019-03-06T21:55:35.580Z,90.10
2019-03-06T21:58:08.954Z,90.00
2019-03-06T22:00:39.324Z,89.60
2019-03-06T22:03:10.613Z,89.60
2019-03-06T22:05:41.007Z,89.40
2019-03-06T22:08:11.486Z,88.90
2019-03-06T22:10:41.846Z,88.50
2019-03-06T22:13:12.220Z,88.60
2019-03-06T22:15:42.915Z,88.20
2019-03-06T22:18:13.202Z,87.70
2019-03-06T22:20:43.934Z,88.00
2019-03-06T22:23:14.227Z,87.70
2019-03-06T22:25:44.599Z,86.40
2019-03-06T22:28:14.920Z,85.80
2019-03-06T22:30:45.299Z,85.80
2019-03-06T22:33:15.570Z,86.20
2019-03-06T22:35:46.205Z,85.50
2019-03-06T22:38:16.581Z,85.50
2019-03-06T22:40:46.908Z,85.80
2019-03-06T22:43:17.239Z,85.80
2019-03-06T22:45:49.153Z,85.80
2019-03-06T22:48:19.796Z,85.60
2019-03-06T22:50:50.126Z,86.00
2019-03-06T22:53:20.842Z,85.70
2019-03-06T22:55:51.142Z,86.10
2019-03-06T22:58:21.469Z,87.20
2019-03-06T23:01:05.185Z,86.40
2019-03-06T23:03:35.998Z,86.40
2019-03-06T23:06:06.357Z,86.60
2019-03-06T23:08:36.653Z,86.50
2019-03-06T23:11:07.689Z,86.00
2019-03-06T23:13:39.127Z,86.00
2019-03-06T23:16:10.585Z,86.00
2019-03-06T23:18:41.691Z,85.80
2019-03-06T23:21:12.032Z,85.50
2019-03-06T23:23:42.481Z,85.30
2019-03-06T23:26:12.772Z,84.60
2019-03-06T23:28:43.047Z,84.70
2019-03-06T23:31:13.786Z,84.60
2019-03-06T23:33:44.124Z,84.80
2019-03-06T23:36:14.736Z,85.00
2019-03-06T23:38:45.040Z,84.60
2019-03-06T23:41:15.386Z,84.30
2019-03-06T23:43:45.847Z,84.60
2019-03-06T23:46:17.698Z,84.60
2019-03-06T23:48:48.314Z,84.10
2019-03-06T23:51:23.829Z,84.10
2019-03-06T23:53:55.616Z,84.30
2019-03-06T23:56:25.948Z,83.80
2019-03-06T23:58:56.353Z,83.40
